Time;durP1;ratioP1;P1;durP2;ratioP2;P2;SDS_P1;SDS_P2;PMS_P1;PMS_P2;Temp;Humidity;BMP_temperature;BMP_pressure;BME280_temperature;BME280_humidity;BME280_pressure;Samples;Min_cycle;Max_cycle;Signal;HPM_P1;HPM_P2
2022/04/14 00:00:41;;;;;;;6.00;2.47;;;;;;;9.46;62.52;96151.81;10309469;28;96925;-64
2022/04/14 00:05:44;;;;;;;5.93;2.40;;;;;;;9.28;64.05;96169.13;10318709;28;97188;-65
2022/04/14 00:10:47;;;;;;;6.32;2.17;;;;;;;9.31;63.14;96168.84;10315816;28;96728;-64
2022/04/14 00:15:51;;;;;;;6.90;1.88;;;;;;;9.38;62.77;96167.31;10307032;28;96788;-64
2022/04/14 00:20:54;;;;;;;5.70;2.23;;;;;;;9.55;62.64;96157.97;10303525;28;96958;-65
2022/04/14 00:25:57;;;;;;;7.25;2.20;;;;;;;9.68;61.53;96165.47;10309631;28;98127;-64
2022/04/14 00:31:04;;;;;;;5.30;2.50;;;;;;;9.61;62.33;96164.38;10316653;28;98592;-64
2022/04/14 00:36:07;;;;;;;4.80;2.10;;;;;;;9.42;62.45;96165.25;10326181;28;97507;-64
2022/04/14 00:41:10;;;;;;;6.82;2.25;;;;;;;9.01;64.41;96168.09;10316724;28;96874;-64
2022/04/14 00:46:14;;;;;;;5.30;2.05;;;;;;;9.09;63.49;96167.41;10308617;28;98291;-64
2022/04/14 00:51:17;;;;;;;3.80;2.17;;;;;;;9.19;62.65;96162.16;10306314;28;97942;-64
2022/04/14 00:56:20;;;;;;;4.63;2.45;;;;;;;8.91;64.95;96156.88;10316044;28;96921;-64
2022/04/14 01:01:24;;;;;;;6.95;2.42;;;;;;;8.64;65.49;96163.63;10316925;28;97331;-64
2022/04/14 01:06:27;;;;;;;3.07;1.83;;;;;;;8.55;66.33;96172.22;10320898;28;96786;-64
2022/04/14 01:11:30;;;;;;;6.35;2.03;;;;;;;8.56;66.40;96183.50;10300686;28;96705;-64
2022/04/14 01:16:34;;;;;;;4.35;2.08;;;;;;;8.58;66.29;96178.97;10304936;28;96783;-64
2022/04/14 01:21:42;;;;;;;3.78;1.42;;;;;;;8.61;64.95;96184.72;10306942;28;100544;-64
2022/04/14 01:26:46;;;;;;;6.88;1.85;;;;;;;8.61;64.72;96176.09;10321600;28;97163;-64
2022/04/14 01:31:49;;;;;;;6.68;1.90;;;;;;;8.60;63.61;96175.25;10313166;28;97309;-64
2022/04/14 01:36:52;;;;;;;2.70;1.20;;;;;;;8.60;63.43;96183.06;10316423;28;96961;-65
2022/04/14 01:41:57;;;;;;;5.05;1.80;;;;;;;8.28;65.56;96181.53;10325353;28;97679;-64
2022/04/14 01:47:00;;;;;;;5.20;1.73;;;;;;;8.22;64.92;96191.66;10319750;28;96957;-64
2022/04/14 01:52:03;;;;;;;6.68;2.00;;;;;;;8.28;64.21;96191.94;10322007;28;100638;-64
2022/04/14 01:57:07;;;;;;;5.07;1.67;;;;;;;8.28;65.01;96191.13;10307163;28;96902;-64
2022/04/14 02:02:10;;;;;;;3.23;1.70;;;;;;;7.87;66.38;96193.75;10327903;28;96770;-64
2022/04/14 02:07:14;;;;;;;6.47;2.17;;;;;;;7.72;67.22;96195.09;10312284;28;96769;-64
2022/04/14 02:12:18;;;;;;;5.43;1.83;;;;;;;7.77;67.38;96195.50;10308674;28;96956;-64
2022/04/14 02:17:21;;;;;;;5.28;1.67;;;;;;;7.63;67.44;96193.25;10306689;28;97038;-64
2022/04/14 02:22:24;;;;;;;3.80;1.70;;;;;;;7.79;66.13;96193.63;10312442;28;100463;-64
2022/04/14 02:27:28;;;;;;;4.28;1.95;;;;;;;7.77;66.76;96188.53;10311795;28;97133;-64
2022/04/14 02:32:31;;;;;;;3.72;1.85;;;;;;;7.64;67.52;96207.91;10306441;28;96733;-64
2022/04/14 02:37:34;;;;;;;5.03;2.10;;;;;;;7.69;66.83;96210.94;10325810;28;96733;-65
2022/04/14 02:42:38;;;;;;;3.35;1.90;;;;;;;7.69;66.75;96197.94;10313581;28;97926;-64
2022/04/14 02:47:41;;;;;;;5.15;2.00;;;;;;;7.63;67.54;96207.09;10326688;28;96921;-64
2022/04/14 02:52:44;;;;;;;6.63;2.42;;;;;;;7.66;68.19;96206.00;10317759;28;97164;-64
2022/04/14 02:57:48;;;;;;;4.40;1.60;;;;;;;7.65;67.64;96214.75;10309246;28;97292;-64
2022/04/14 03:02:51;;;;;;;3.63;1.70;;;;;;;7.67;67.82;96207.66;10311506;28;96959;-64
2022/04/14 03:07:54;;;;;;;3.97;1.65;;;;;;;7.68;67.88;96206.69;10309188;28;96887;-63
2022/04/14 03:12:58;;;;;;;4.65;1.85;;;;;;;7.67;67.36;96212.88;10309767;28;102958;-63
2022/04/14 03:18:02;;;;;;;8.93;1.75;;;;;;;7.64;66.56;96205.31;10306647;28;96828;-64
2022/04/14 03:23:04;;;;;;;3.65;1.60;;;;;;;7.59;66.42;96208.31;10328651;28;96912;-63
2022/04/14 03:28:09;;;;;;;3.28;1.60;;;;;;;7.55;65.31;96199.94;10310270;28;96883;-64
2022/04/14 03:33:13;;;;;;;3.63;1.52;;;;;;;7.36;66.42;96208.47;10316120;28;98725;-64
2022/04/14 03:38:16;;;;;;;3.30;1.52;;;;;;;7.32;66.11;96198.44;10306223;28;96700;-64
2022/04/14 03:43:37;;;;;;;4.65;1.88;;;;;;;7.19;67.50;96199.47;10308958;28;96791;-63
2022/04/14 03:48:41;;;;;;;3.70;1.80;;;;;;;7.09;67.49;96200.38;10315083;28;96960;-63
2022/04/14 03:53:44;;;;;;;3.75;1.80;;;;;;;7.11;66.94;96201.06;10303519;28;97172;-63
2022/04/14 03:58:49;;;;;;;3.67;1.33;;;;;;;7.14;67.21;96201.63;10307623;28;96847;-63
2022/04/14 04:03:51;;;;;;;4.40;1.90;;;;;;;6.91;68.38;96197.50;10311116;28;97052;-63
2022/04/14 04:08:54;;;;;;;5.82;1.60;;;;;;;6.94;68.01;96195.47;10317380;28;96693;-64
2022/04/14 04:13:58;;;;;;;4.75;1.50;;;;;;;6.90;67.60;96199.25;10310424;28;98470;-63
2022/04/14 04:19:01;;;;;;;2.92;1.27;;;;;;;6.85;66.75;96194.44;10310430;28;96877;-63
2022/04/14 04:24:05;;;;;;;4.47;1.75;;;;;;;6.84;67.16;96204.97;10313689;28;100420;-63
2022/04/14 04:29:09;;;;;;;6.10;2.13;;;;;;;6.66;68.64;96202.09;10332229;28;98998;-63
2022/04/14 04:34:12;;;;;;;5.95;2.10;;;;;;;6.68;68.00;96214.91;10312415;28;96753;-63
2022/04/14 04:39:15;;;;;;;3.92;1.75;;;;;;;6.64;68.85;96211.75;10305704;28;96708;-63
2022/04/14 04:44:19;;;;;;;7.88;4.10;;;;;;;6.59;68.85;96224.28;10316367;28;98672;-63
2022/04/14 04:49:22;;;;;;;14.63;9.10;;;;;;;6.57;69.29;96223.59;10311312;28;103011;-63
2022/04/14 04:54:25;;;;;;;8.85;2.70;;;;;;;6.37;70.46;96223.41;10323945;28;97005;-63
2022/04/14 04:59:29;;;;;;;6.53;2.58;;;;;;;6.26;71.61;96226.06;10305133;28;98150;-63
2022/04/14 05:04:32;;;;;;;5.78;2.03;;;;;;;6.37;70.88;96233.78;10307566;28;96836;-63
2022/04/14 05:09:35;;;;;;;3.60;2.40;;;;;;;6.56;69.72;96245.31;10311737;28;96803;-63
2022/04/14 05:14:39;;;;;;;6.10;2.55;;;;;;;6.63;69.07;96244.69;10308782;28;97007;-63
2022/04/14 05:19:42;;;;;;;6.50;2.72;;;;;;;6.78;68.93;96247.84;10307507;28;102699;-63
2022/04/14 05:24:45;;;;;;;3.38;2.55;;;;;;;6.83;68.87;96253.47;10309514;28;96940;-63
2022/04/14 05:29:49;;;;;;;7.15;2.90;;;;;;;6.77;69.88;96251.38;10324691;28;96862;-64
2022/04/14 05:34:52;;;;;;;6.70;2.30;;;;;;;6.50;71.14;96264.78;10311599;28;96912;-64
2022/04/14 05:39:55;;;;;;;6.60;2.80;;;;;;;6.43;71.90;96264.47;10314092;28;97427;-63
2022/04/14 05:44:59;;;;;;;5.90;2.45;;;;;;;6.67;71.89;96260.84;10308734;28;97054;-63
2022/04/14 05:50:02;;;;;;;3.10;2.20;;;;;;;7.00;70.84;96261.69;10312392;28;96771;-63
2022/04/14 05:55:06;;;;;;;4.32;2.30;;;;;;;7.25;70.29;96267.47;10312469;28;97862;-63
2022/04/14 06:00:13;;;;;;;7.15;2.60;;;;;;;7.50;70.00;96259.28;10317868;28;97066;-63
2022/04/14 06:05:16;;;;;;;4.85;2.33;;;;;;;7.65;70.17;96270.19;10332402;28;96793;-63
2022/04/14 06:10:19;;;;;;;5.28;2.50;;;;;;;7.73;70.51;96262.56;10313928;28;96986;-63
2022/04/14 06:15:26;;;;;;;5.57;2.20;;;;;;;7.82;70.76;96258.34;10323861;28;96912;-63
2022/04/14 06:20:28;;;;;;;5.13;2.20;;;;;;;8.03;70.83;96257.47;10307128;28;97033;-64
2022/04/14 06:25:32;;;;;;;4.50;2.10;;;;;;;8.27;70.35;96262.34;10323035;28;96818;-63
2022/04/14 06:30:36;;;;;;;6.55;2.50;;;;;;;8.51;70.15;96264.59;10322409;28;97837;-63
2022/04/14 06:35:39;;;;;;;4.83;2.33;;;;;;;8.80;69.50;96269.03;10317279;28;96867;-64
2022/04/14 06:40:42;;;;;;;6.57;2.45;;;;;;;8.99;68.62;96276.03;10322283;28;97939;-63
2022/04/14 06:45:46;;;;;;;5.32;2.20;;;;;;;9.15;68.50;96271.09;10324635;28;97073;-63
2022/04/14 06:50:49;;;;;;;7.83;2.93;;;;;;;9.38;68.02;96276.81;10323390;28;100144;-64
2022/04/14 06:55:53;;;;;;;9.70;2.40;;;;;;;9.64;68.76;96274.47;10320940;28;96857;-63
2022/04/14 07:00:57;;;;;;;6.00;2.70;;;;;;;9.92;68.35;96284.97;10321436;28;96847;-64
2022/04/14 07:06:01;;;;;;;8.33;2.70;;;;;;;10.16;67.85;96279.25;10313430;28;99012;-64
2022/04/14 07:11:05;;;;;;;8.38;2.40;;;;;;;10.33;67.04;96274.25;10320501;28;100227;-63
2022/04/14 07:16:09;;;;;;;6.67;2.47;;;;;;;10.41;65.94;96269.13;10308248;28;97000;-63
2022/04/14 07:21:12;;;;;;;4.20;2.17;;;;;;;10.55;66.32;96273.84;10304270;28;96744;-63
2022/04/14 07:26:15;;;;;;;5.97;2.17;;;;;;;10.66;65.00;96279.81;10306216;28;96808;-64
2022/04/14 07:31:19;;;;;;;4.88;2.40;;;;;;;10.73;64.94;96278.28;10307862;28;100410;-63
2022/04/14 07:36:22;;;;;;;5.57;2.30;;;;;;;10.93;64.58;96281.56;10304934;28;96863;-63
2022/04/14 07:41:37;;;;;;;6.53;2.35;;;;;;;11.05;64.39;96280.38;10301320;28;96746;-63
2022/04/14 07:46:41;;;;;;;3.40;1.88;;;;;;;11.13;63.87;96288.28;10318754;28;96748;-64
2022/04/14 07:51:44;;;;;;;7.07;2.63;;;;;;;11.29;63.56;96287.59;10339772;28;96984;-63
2022/04/14 07:56:47;;;;;;;5.53;2.22;;;;;;;11.46;62.99;96293.00;10337593;28;96951;-64
2022/04/14 08:01:52;;;;;;;5.03;1.90;;;;;;;11.59;62.88;96293.44;10341240;28;96724;-64
2022/04/14 08:06:55;;;;;;;6.63;2.00;;;;;;;11.76;62.63;96296.16;10340945;28;96767;-64
2022/04/14 08:12:18;;;;;;;7.40;1.98;;;;;;;11.89;62.40;96304.44;10337078;28;97046;-63
2022/04/14 08:17:22;;;;;;;5.43;2.13;;;;;;;12.10;62.16;96297.00;10341200;28;96925;-64
2022/04/14 08:22:25;;;;;;;5.60;2.20;;;;;;;12.24;61.84;96307.88;10338665;28;99803;-63
2022/04/14 08:27:28;;;;;;;6.55;2.40;;;;;;;12.37;61.46;96310.91;10337728;28;96888;-63
2022/04/14 08:32:34;;;;;;;5.57;2.60;;;;;;;12.50;61.76;96292.13;10338509;28;97069;-63
2022/04/14 08:37:37;;;;;;;7.70;2.50;;;;;;;12.58;60.80;96300.00;10337726;28;97281;-64
2022/04/14 08:42:42;;;;;;;7.03;2.53;;;;;;;12.65;61.54;96297.59;10339864;28;96905;-64
2022/04/14 08:47:51;;;;;;;5.82;2.13;;;;;;;12.82;61.10;96301.88;10336363;28;100146;-64
2022/04/14 08:52:54;;;;;;;6.43;2.58;;;;;;;12.99;61.24;96294.06;10339904;28;96961;-64
2022/04/14 08:57:58;;;;;;;4.55;2.03;;;;;;;13.17;60.61;96284.28;10341047;28;96815;-64
2022/04/14 09:03:04;;;;;;;9.02;2.13;;;;;;;13.38;59.83;96291.66;10341670;28;99838;-63
2022/04/14 09:08:08;;;;;;;7.25;2.47;;;;;;;13.61;59.45;96286.56;10340753;28;96897;-64
2022/04/14 09:13:12;;;;;;;7.15;2.10;;;;;;;13.77;58.49;96292.78;10344500;28;97019;-64
2022/04/14 09:18:17;;;;;;;;;;;;;;;13.76;58.83;96285.91;10342595;28;96722;-64
2022/04/14 09:23:22;;;;;;;13.80;2.70;;;;;;;13.85;58.36;96281.47;10346640;28;96842;-64
2022/04/14 09:28:25;;;;;;;;;;;;;;;13.98;58.88;96272.06;10344648;28;96955;-64
2022/04/14 09:33:30;;;;;;;5.28;1.88;;;;;;;14.16;57.32;96278.91;10344096;28;98471;-64
2022/04/14 09:38:55;;;;;;;6.28;2.30;;;;;;;14.30;57.16;96269.50;10342357;28;96801;-64
2022/04/14 09:43:59;;;;;;;8.00;2.72;;;;;;;14.42;57.04;96267.34;10347029;28;99789;-64
2022/04/14 09:49:08;;;;;;;8.50;2.17;;;;;;;14.55;56.53;96272.88;10343574;28;97022;-64
2022/04/14 09:54:13;;;;;;;7.32;2.22;;;;;;;14.70;55.91;96265.09;10340018;28;96839;-64
2022/04/14 09:59:19;;;;;;;8.35;2.28;;;;;;;14.87;55.47;96271.03;10345612;28;96759;-64
2022/04/14 10:04:31;;;;;;;8.80;2.38;;;;;;;14.98;54.32;96257.50;10344905;28;98179;-64
2022/04/14 10:09:35;;;;;;;4.28;1.75;;;;;;;15.09;54.24;96254.47;10335300;28;98614;-65
2022/04/14 10:14:38;;;;;;;8.13;2.40;;;;;;;15.21;54.83;96252.25;10324338;28;98517;-63
2022/04/14 10:19:44;;;;;;;6.47;2.17;;;;;;;15.47;54.45;96246.59;10331163;28;97242;-63
2022/04/14 10:24:48;;;;;;;6.47;2.13;;;;;;;15.59;54.14;96235.69;10329105;28;96855;-63
2022/04/14 10:29:52;;;;;;;6.93;2.22;;;;;;;15.82;53.75;96231.16;10322256;28;97080;-63
2022/04/14 10:34:57;;;;;;;12.73;2.70;;;;;;;16.14;53.58;96231.81;10330011;28;96811;-64
2022/04/14 10:40:02;;;;;;;6.82;2.45;;;;;;;16.46;53.33;96229.75;10324047;28;99564;-64
2022/04/14 11:03:04;;;;;;;11.57;3.03;;;;;;;16.79;52.81;96224.88;10471817;27;98200;-66
2022/04/14 11:08:24;;;;;;;5.85;2.35;;;;;;;17.09;52.46;96222.16;10460983;27;96898;-66
2022/04/14 11:14:09;;;;;;;5.93;2.10;;;;;;;17.36;51.97;96223.19;10465388;27;97118;-66
2022/04/14 11:19:26;;;;;;;8.48;2.40;;;;;;;17.68;51.81;96215.72;10462174;27;96752;-66
2022/04/14 11:24:43;;;;;;;5.55;2.05;;;;;;;17.89;51.00;96214.03;10464815;27;96779;-66
2022/04/14 11:29:51;;;;;;;6.88;2.40;;;;;;;18.12;50.45;96208.47;10460517;27;96814;-67
2022/04/14 11:35:08;;;;;;;5.47;2.25;;;;;;;18.34;50.02;96211.81;10464496;27;96834;-66
2022/04/14 11:40:15;;;;;;;9.30;2.92;;;;;;;18.48;50.13;96210.88;10469562;27;96832;-66
2022/04/14 11:45:22;;;;;;;8.18;2.33;;;;;;;18.58;50.24;96207.84;10489438;27;100357;-66
2022/04/14 11:50:28;;;;;;;7.32;2.50;;;;;;;18.65;48.86;96214.00;10460828;27;98918;-66
2022/04/14 11:55:34;;;;;;;5.50;2.40;;;;;;;18.69;48.25;96198.53;10464728;27;96793;-66
2022/04/14 12:00:45;;;;;;;6.15;2.40;;;;;;;19.07;48.53;96205.94;10465070;27;101709;-66
2022/04/14 12:05:53;;;;;;;7.30;2.30;;;;;;;19.35;47.83;96203.13;10459938;27;96853;-66
2022/04/14 12:10:56;;;;;;;6.28;2.17;;;;;;;19.63;47.67;96194.13;10455059;27;96794;-66
2022/04/14 12:16:03;;;;;;;7.63;1.98;;;;;;;20.00;47.65;96199.81;10435919;27;96764;-66
2022/04/14 12:21:17;;;;;;;5.70;2.03;;;;;;;19.92;45.93;96198.19;10431212;27;97653;-67
2022/04/14 12:26:23;;;;;;;4.57;2.08;;;;;;;19.68;45.99;96196.16;10432447;27;96828;-66
2022/04/14 12:31:28;;;;;;;6.45;1.92;;;;;;;19.75;46.43;96189.03;10434768;27;96943;-66
2022/04/14 12:36:38;;;;;;;7.00;1.98;;;;;;;20.14;46.53;96184.66;10435932;27;97015;-66
2022/04/14 12:41:41;;;;;;;7.97;1.90;;;;;;;20.44;45.43;96184.13;10430019;27;96927;-66
2022/04/14 12:46:48;;;;;;;4.30;1.80;;;;;;;20.55;44.96;96181.63;10434576;27;96905;-66
2022/04/14 12:51:56;;;;;;;6.38;1.98;;;;;;;20.66;44.52;96177.50;10434610;27;96800;-67
2022/04/14 12:57:01;;;;;;;3.20;1.60;;;;;;;20.73;43.97;96172.94;10430190;27;98208;-67
2022/04/14 13:02:08;;;;;;;6.53;1.75;;;;;;;20.89;43.19;96176.16;10450336;27;97504;-67
2022/04/14 13:07:13;;;;;;;5.38;1.90;;;;;;;20.81;43.70;96179.06;10434346;27;97115;-67
2022/04/14 13:12:39;;;;;;;7.03;2.00;;;;;;;21.17;42.97;96172.28;10430936;27;96762;-67
2022/04/14 13:17:43;;;;;;;4.15;1.70;;;;;;;21.09;42.88;96168.88;10429580;27;96972;-67
2022/04/14 13:22:51;;;;;;;4.43;2.00;;;;;;;21.39;42.96;96170.88;10432237;27;97162;-67
2022/04/14 13:27:54;;;;;;;7.68;2.22;;;;;;;21.77;42.42;96172.63;10433542;27;97445;-67
2022/04/14 13:32:58;;;;;;;5.95;1.67;;;;;;;21.93;41.94;96165.09;10428827;27;96754;-67
2022/04/14 13:38:02;;;;;;;7.80;1.80;;;;;;;22.04;41.68;96161.72;10432965;27;96855;-67
2022/04/14 13:43:07;;;;;;;5.88;1.75;;;;;;;22.23;41.17;96160.66;10432786;27;100198;-67
2022/04/14 13:48:10;;;;;;;5.35;2.15;;;;;;;22.34;40.73;96155.63;10428845;27;96819;-67
2022/04/14 13:53:16;;;;;;;5.55;1.80;;;;;;;22.48;40.17;96150.97;10431268;27;97098;-67
2022/04/14 13:58:21;;;;;;;4.57;2.08;;;;;;;22.58;39.38;96146.72;10433898;27;100368;-67
2022/04/14 14:03:29;;;;;;;3.65;1.50;;;;;;;22.32;39.83;96147.03;10431034;27;97024;-67
2022/04/14 14:08:34;;;;;;;6.63;1.83;;;;;;;22.43;39.73;96138.31;10427759;27;96658;-67
2022/04/14 14:13:36;;;;;;;7.00;1.67;;;;;;;22.91;39.54;96144.63;10430774;27;96823;-67
2022/04/14 14:18:39;;;;;;;5.50;2.00;;;;;;;23.14;40.14;96149.19;10432053;27;98378;-67
2022/04/14 14:23:44;;;;;;;5.10;2.15;;;;;;;23.19;42.21;96141.31;10426700;27;96871;-67
2022/04/14 14:28:47;;;;;;;7.10;1.92;;;;;;;23.09;43.90;96146.41;10431150;27;97998;-68
2022/04/14 14:33:50;;;;;;;4.77;1.90;;;;;;;23.17;43.75;96143.41;10432671;27;96801;-68
2022/04/14 14:38:54;;;;;;;4.03;1.80;;;;;;;23.21;43.81;96149.91;10426859;27;99675;-68
2022/04/14 14:43:58;;;;;;;5.85;2.30;;;;;;;23.41;42.73;96146.13;10430578;27;96840;-68
2022/04/14 14:49:01;;;;;;;4.22;2.00;;;;;;;23.53;42.13;96149.59;10431106;27;96884;-68
2022/04/14 14:54:06;;;;;;;5.37;1.97;;;;;;;23.76;41.74;96140.78;10426175;27;96926;-68
2022/04/14 14:59:15;;;;;;;7.45;2.03;;;;;;;24.54;40.31;96148.50;10429594;27;96841;-68
2022/04/14 15:04:20;;;;;;;5.72;2.35;;;;;;;24.76;40.63;96144.09;10431020;27;100174;-68
2022/04/14 15:09:24;;;;;;;5.50;1.85;;;;;;;24.86;39.06;96149.66;10429004;27;96946;-68
2022/04/14 15:14:28;;;;;;;5.45;2.35;;;;;;;24.41;39.80;96147.72;10428199;27;96935;-68
2022/04/14 15:19:31;;;;;;;3.47;1.77;;;;;;;23.51;41.54;96149.81;10430423;27;96787;-68
2022/04/14 15:24:35;;;;;;;5.05;1.90;;;;;;;23.34;41.73;96170.22;10429879;27;98564;-68
2022/04/14 15:29:38;;;;;;;7.25;2.83;;;;;;;23.38;42.55;96164.19;10423804;27;96880;-68
2022/04/14 15:34:41;;;;;;;8.18;2.38;;;;;;;23.26;41.99;96173.19;10431339;27;97007;-68
2022/04/14 15:39:46;;;;;;;3.93;2.10;;;;;;;23.32;42.32;96166.97;10428846;27;96974;-68
2022/04/14 15:44:49;;;;;;;5.80;2.25;;;;;;;23.27;42.63;96158.81;10425581;27;96922;-68
2022/04/14 15:49:51;;;;;;;6.88;2.00;;;;;;;23.46;41.93;96172.91;10436629;27;97158;-68
2022/04/14 15:54:57;;;;;;;6.93;2.50;;;;;;;23.54;42.25;96164.56;10438139;27;96746;-68
2022/04/14 16:00:00;;;;;;;5.32;2.33;;;;;;;23.60;41.31;96168.94;10435841;27;98260;-68
2022/04/14 16:05:03;;;;;;;;;;;;;;;23.57;42.35;96169.44;10448151;27;98056;-68
2022/04/14 16:15:29;;;;;;;6.75;2.10;;;;;;;23.61;42.33;96170.59;10450326;27;96721;-69
2022/04/14 16:20:32;;;;;;;7.30;2.07;;;;;;;22.98;43.45;96178.13;10442905;27;96821;-67
2022/04/14 16:25:36;;;;;;;6.00;2.10;;;;;;;22.45;43.48;96173.47;10444562;27;96881;-67
2022/04/14 16:30:39;;;;;;;9.13;2.63;;;;;;;21.88;44.51;96179.88;10446851;27;99865;-66
2022/04/14 16:35:42;;;;;;;5.10;2.33;;;;;;;21.45;45.39;96196.59;10454885;27;96916;-66
2022/04/14 16:40:46;;;;;;;5.50;2.30;;;;;;;21.05;46.18;96191.59;10438343;27;97442;-69
2022/04/14 16:45:49;;;;;;;7.50;3.35;;;;;;;20.83;46.83;96192.97;10463335;27;96840;-67
2022/04/14 16:50:52;;;;;;;8.05;2.42;;;;;;;20.94;46.32;96190.41;10434947;27;96871;-68
2022/04/14 16:55:57;;;;;;;7.43;2.25;;;;;;;20.84;46.24;96191.91;10449720;27;97265;-65
2022/04/14 17:01:01;;;;;;;5.20;2.50;;;;;;;20.83;46.10;96193.78;10458795;27;98623;-67
2022/04/14 17:06:04;;;;;;;8.07;2.50;;;;;;;20.41;46.46;96205.78;10430037;27;97184;-67
2022/04/14 17:11:09;;;;;;;6.55;2.70;;;;;;;19.99;47.55;96204.31;10433949;27;98097;-67
2022/04/14 17:16:12;;;;;;;5.90;2.55;;;;;;;19.64;48.51;96195.75;10433850;27;97137;-68
2022/04/14 17:21:15;;;;;;;6.55;2.53;;;;;;;19.38;48.96;96212.47;10432793;27;96776;-67
2022/04/14 17:26:20;;;;;;;5.15;2.60;;;;;;;19.13;49.65;96205.13;10431608;27;98162;-67
2022/04/14 17:31:22;;;;;;;;;;;;;;;18.97;49.75;96210.84;10457801;27;97268;-67
2022/04/14 17:36:26;;;;;;;8.07;3.55;;;;;;;18.70;50.22;96218.66;10432248;27;97404;-67
2022/04/14 17:41:30;;;;;;;6.68;2.50;;;;;;;18.57;50.70;96211.50;10455628;27;96916;-67
2022/04/14 17:46:33;;;;;;;4.72;2.63;;;;;;;18.52;50.81;96223.72;10431081;27;97122;-67
2022/04/14 17:51:37;;;;;;;5.65;2.97;;;;;;;18.52;50.39;96232.44;10450140;27;98537;-67
2022/04/14 17:56:42;;;;;;;6.55;2.63;;;;;;;18.45;50.70;96228.97;10430548;27;96871;-67
2022/04/14 18:01:45;;;;;;;;;;;;;;;18.20;50.58;96232.09;10447039;27;99719;-67
2022/04/14 18:06:49;;;;;;;5.30;2.50;;;;;;;18.13;50.97;96233.88;10465699;27;97539;-67
2022/04/14 18:11:53;;;;;;;8.43;3.05;;;;;;;18.12;51.39;96246.28;10431093;27;97003;-67
2022/04/14 18:16:56;;;;;;;5.28;2.72;;;;;;;18.12;51.43;96254.22;10438380;27;96734;-67
2022/04/14 18:21:59;;;;;;;5.53;2.53;;;;;;;18.02;51.32;96253.75;10442266;27;100977;-67
2022/04/14 18:27:04;;;;;;;8.13;3.15;;;;;;;17.87;51.72;96274.19;10455020;27;96830;-67
2022/04/14 18:32:09;;;;;;;5.40;2.70;;;;;;;17.73;52.24;96267.97;10436664;27;96947;-67
2022/04/14 18:37:12;;;;;;;5.50;2.70;;;;;;;17.56;52.68;96267.41;10439072;27;96919;-67
2022/04/14 18:42:16;;;;;;;6.95;2.88;;;;;;;17.53;52.62;96288.94;10447483;27;96724;-67
2022/04/14 18:47:20;;;;;;;6.68;3.05;;;;;;;17.50;52.37;96292.78;10445617;27;96935;-67
2022/04/14 18:52:23;;;;;;;7.70;2.75;;;;;;;17.48;52.63;96292.16;10437020;27;98867;-66
2022/04/14 18:57:28;;;;;;;9.18;4.57;;;;;;;17.54;52.10;96306.41;10441190;27;97125;-66
2022/04/14 19:02:31;;;;;;;7.50;2.70;;;;;;;17.55;52.40;96308.06;10421999;27;96842;-68
2022/04/14 19:07:35;;;;;;;7.97;3.25;;;;;;;17.49;52.41;96314.09;10424756;27;97372;-67
2022/04/14 19:12:39;;;;;;;7.70;3.27;;;;;;;17.42;51.73;96321.13;10446049;27;98258;-68
2022/04/14 19:17:42;;;;;;;7.35;3.67;;;;;;;17.34;52.39;96327.38;10443754;27;96884;-67
2022/04/14 19:23:00;;;;;;;6.85;2.70;;;;;;;17.33;52.00;96331.81;10438563;27;97172;-67
2022/04/14 19:28:06;;;;;;;7.25;2.70;;;;;;;17.36;52.24;96335.91;10451145;27;96847;-67
2022/04/14 19:33:10;;;;;;;6.93;3.03;;;;;;;17.33;52.14;96345.00;10453292;27;98927;-67
2022/04/14 19:38:13;;;;;;;5.77;2.83;;;;;;;17.23;52.07;96357.72;10450345;27;96819;-67
2022/04/14 19:43:18;;;;;;;8.07;3.03;;;;;;;17.13;52.96;96352.72;10451632;27;96732;-68
2022/04/14 19:48:21;;;;;;;4.90;3.20;;;;;;;17.05;53.54;96371.31;10440052;27;98780;-67
2022/04/14 19:53:25;;;;;;;7.65;3.15;;;;;;;16.98;54.07;96371.22;10449217;27;97949;-67
2022/04/14 19:58:30;;;;;;;7.38;2.97;;;;;;;16.96;54.01;96378.50;10437305;27;97875;-67
2022/04/14 20:03:33;;;;;;;9.70;3.45;;;;;;;16.92;53.94;96384.34;10446844;27;97609;-67
2022/04/14 20:08:36;;;;;;;7.28;3.17;;;;;;;16.77;54.64;96390.44;10441146;27;96781;-67
2022/04/14 20:13:40;;;;;;;6.75;3.10;;;;;;;16.51;55.42;96390.88;10449917;27;96855;-67
2022/04/14 20:18:44;;;;;;;9.18;3.17;;;;;;;16.39;55.72;96400.22;10453293;27;96893;-67
2022/04/14 20:23:47;;;;;;;7.22;4.18;;;;;;;16.25;56.12;96397.38;10455987;27;96997;-66
2022/04/14 20:28:51;;;;;;;9.15;3.80;;;;;;;16.20;56.17;96399.75;10451691;27;99451;-67
2022/04/14 20:33:55;;;;;;;14.63;7.57;;;;;;;15.93;56.56;96400.31;10452943;27;96701;-66
2022/04/14 20:38:58;;;;;;;7.63;3.65;;;;;;;15.70;57.39;96393.25;10448926;27;96841;-67
2022/04/14 20:44:02;;;;;;;6.05;3.33;;;;;;;15.60;57.34;96411.09;10454681;27;96912;-67
2022/04/14 20:49:05;;;;;;;6.15;3.85;;;;;;;15.55;57.72;96421.28;10454428;27;97016;-67
2022/04/14 20:54:08;;;;;;;8.45;3.60;;;;;;;15.34;58.15;96425.38;10453447;27;96964;-67
2022/04/14 20:59:12;;;;;;;8.80;3.70;;;;;;;15.11;59.43;96425.31;10453865;27;98079;-67
2022/04/14 21:04:15;;;;;;;5.25;3.42;;;;;;;14.84;59.28;96423.97;10449894;27;97007;-67
2022/04/14 21:09:18;;;;;;;7.03;3.38;;;;;;;14.53;60.32;96428.13;10458616;27;96746;-67
2022/04/14 21:14:22;;;;;;;6.70;3.47;;;;;;;14.39;61.47;96431.47;10457956;27;98254;-67
2022/04/14 21:19:26;;;;;;;5.97;4.07;;;;;;;14.31;61.15;96419.13;10449672;27;97031;-67
2022/04/14 21:24:29;;;;;;;6.70;4.05;;;;;;;14.19;61.54;96428.31;10444324;27;96886;-67
2022/04/14 21:29:33;;;;;;;6.90;3.55;;;;;;;14.13;61.73;96435.06;10451531;27;97988;-67
2022/04/14 21:34:37;;;;;;;11.30;3.35;;;;;;;13.87;62.48;96432.59;10449933;27;96845;-67
2022/04/14 21:39:39;;;;;;;7.10;3.55;;;;;;;13.80;62.79;96436.88;10453821;27;97803;-67
2022/04/14 21:44:44;;;;;;;5.72;3.10;;;;;;;13.64;63.42;96435.06;10454240;27;96864;-67
2022/04/14 21:49:47;;;;;;;5.97;3.33;;;;;;;13.36;63.67;96435.31;10448439;27;96962;-67
2022/04/14 21:54:50;;;;;;;5.78;3.47;;;;;;;13.12;64.55;96441.31;10451831;27;96819;-67
2022/04/14 21:59:56;;;;;;;5.70;3.20;;;;;;;13.07;64.59;96443.59;10454113;27;96881;-67
2022/04/14 22:04:58;;;;;;;4.97;3.22;;;;;;;12.83;65.58;96452.94;10449782;27;96737;-67
2022/04/14 22:10:07;;;;;;;4.00;2.72;;;;;;;12.82;65.35;96456.56;10431052;27;97758;-67
2022/04/14 22:15:12;;;;;;;6.60;3.03;;;;;;;12.78;65.20;96463.09;10436914;27;96761;-67
2022/04/14 22:20:14;;;;;;;5.28;3.10;;;;;;;12.65;65.79;96452.22;10451579;27;98054;-67
2022/04/14 22:25:20;;;;;;;9.35;3.05;;;;;;;12.62;65.56;96457.75;10431324;27;96793;-67
2022/04/14 22:30:24;;;;;;;7.90;2.83;;;;;;;12.52;66.42;96454.44;10450813;27;96963;-67
2022/04/14 22:35:27;;;;;;;5.63;3.10;;;;;;;12.31;66.21;96445.13;10428512;27;97997;-67
2022/04/14 22:40:30;;;;;;;8.18;3.15;;;;;;;12.36;65.65;96447.28;10435724;27;96809;-67
2022/04/14 22:45:35;;;;;;;8.82;3.10;;;;;;;12.36;65.75;96452.53;10425863;27;96698;-66
2022/04/14 22:50:38;;;;;;;6.97;3.60;;;;;;;12.21;66.21;96444.38;10439800;27;96891;-67
2022/04/14 22:55:41;;;;;;;5.10;3.03;;;;;;;12.08;67.08;96450.84;10423169;27;97422;-67
2022/04/14 23:00:45;;;;;;;7.18;3.10;;;;;;;12.02;66.84;96446.19;10426436;27;96890;-67
2022/04/14 23:05:48;;;;;;;6.30;3.33;;;;;;;12.05;66.93;96456.38;10436140;27;96944;-67
2022/04/14 23:10:51;;;;;;;4.85;2.47;;;;;;;12.10;65.57;96451.50;10432395;27;96895;-67
2022/04/14 23:15:57;;;;;;;7.25;3.35;;;;;;;12.18;65.81;96445.53;10437710;27;97497;-67
2022/04/14 23:21:00;;;;;;;5.13;2.85;;;;;;;12.16;65.23;96454.50;10428750;27;97145;-67
2022/04/14 23:26:03;;;;;;;7.25;2.60;;;;;;;12.13;64.53;96458.25;10431072;27;97241;-67
2022/04/14 23:31:07;;;;;;;5.88;2.55;;;;;;;12.12;64.19;96456.59;10422523;27;97193;-67
2022/04/14 23:36:10;;;;;;;4.50;2.97;;;;;;;11.99;64.46;96457.00;10443212;27;96886;-67
2022/04/14 23:41:13;;;;;;;5.55;3.70;;;;;;;11.74;65.82;96458.56;10438438;27;96807;-67
2022/04/14 23:46:17;;;;;;;6.60;3.10;;;;;;;11.49;67.30;96449.66;10425031;27;99489;-67
2022/04/14 23:51:20;;;;;;;9.17;4.30;;;;;;;11.34;67.34;96451.97;10422644;27;96949;-67
2022/04/14 23:56:23;;;;;;;6.80;3.85;;;;;;;11.15;68.19;96452.84;10449478;27;97811;-67
